sensor_id;sensor_type;location;lat;lon;timestamp;P1;durP1;ratioP1;P2;durP2;ratioP2
59972;SDS011;55298;-36.624;-64.282;2024-02-28T00:01:03;4.85;;;2.55;;
59972;SDS011;55298;-36.624;-64.282;2024-02-28T00:03:31;5.72;;;2.20;;
59972;SDS011;55298;-36.624;-64.282;2024-02-28T00:05:59;4.38;;;2.42;;
59972;SDS011;55298;-36.624;-64.282;2024-02-28T00:08:27;5.40;;;3.22;;
59972;SDS011;55298;-36.624;-64.282;2024-02-28T00:10:55;8.38;;;4.22;;
59972;SDS011;55298;-36.624;-64.282;2024-02-28T00:13:23;6.28;;;4.82;;
59972;SDS011;55298;-36.624;-64.282;2024-02-28T00:15:50;6.75;;;5.35;;
59972;SDS011;55298;-36.624;-64.282;2024-02-28T00:18:18;2.85;;;2.60;;
59972;SDS011;55298;-36.624;-64.282;2024-02-28T00:20:46;2.42;;;1.83;;
59972;SDS011;55298;-36.624;-64.282;2024-02-28T00:23:14;3.45;;;1.70;;
59972;SDS011;55298;-36.624;-64.282;2024-02-28T00:25:42;3.22;;;1.90;;
59972;SDS011;55298;-36.624;-64.282;2024-02-28T00:28:10;3.65;;;2.00;;
59972;SDS011;55298;-36.624;-64.282;2024-02-28T00:30:37;2.92;;;2.28;;
59972;SDS011;55298;-36.624;-64.282;2024-02-28T00:33:08;4.53;;;2.55;;
59972;SDS011;55298;-36.624;-64.282;2024-02-28T00:35:35;4.65;;;2.90;;
59972;SDS011;55298;-36.624;-64.282;2024-02-28T00:38:03;2.50;;;2.25;;
59972;SDS011;55298;-36.624;-64.282;2024-02-28T00:40:31;2.72;;;1.85;;
59972;SDS011;55298;-36.624;-64.282;2024-02-28T00:42:59;2.10;;;1.90;;
59972;SDS011;55298;-36.624;-64.282;2024-02-28T00:45:27;2.97;;;1.83;;
59972;SDS011;55298;-36.624;-64.282;2024-02-28T00:47:55;1.98;;;1.50;;
59972;SDS011;55298;-36.624;-64.282;2024-02-28T00:50:23;2.75;;;1.60;;
59972;SDS011;55298;-36.624;-64.282;2024-02-28T00:52:51;5.35;;;1.98;;
59972;SDS011;55298;-36.624;-64.282;2024-02-28T00:55:19;4.25;;;3.30;;
59972;SDS011;55298;-36.624;-64.282;2024-02-28T00:57:47;6.35;;;5.07;;
59972;SDS011;55298;-36.624;-64.282;2024-02-28T01:00:15;4.97;;;3.30;;
59972;SDS011;55298;-36.624;-64.282;2024-02-28T01:02:44;4.10;;;2.65;;
59972;SDS011;55298;-36.624;-64.282;2024-02-28T01:05:11;3.28;;;2.40;;
59972;SDS011;55298;-36.624;-64.282;2024-02-28T01:07:40;3.97;;;1.92;;
59972;SDS011;55298;-36.624;-64.282;2024-02-28T01:10:07;3.63;;;2.03;;
59972;SDS011;55298;-36.624;-64.282;2024-02-28T01:12:36;3.38;;;2.50;;
59972;SDS011;55298;-36.624;-64.282;2024-02-28T01:15:04;4.22;;;2.00;;
59972;SDS011;55298;-36.624;-64.282;2024-02-28T01:17:32;2.70;;;2.00;;
59972;SDS011;55298;-36.624;-64.282;2024-02-28T01:20:00;2.03;;;1.92;;
59972;SDS011;55298;-36.624;-64.282;2024-02-28T01:22:28;2.92;;;2.72;;
59972;SDS011;55298;-36.624;-64.282;2024-02-28T01:24:56;3.35;;;2.30;;
59972;SDS011;55298;-36.624;-64.282;2024-02-28T01:27:24;2.40;;;2.20;;
59972;SDS011;55298;-36.624;-64.282;2024-02-28T01:29:53;3.17;;;2.10;;
59972;SDS011;55298;-36.624;-64.282;2024-02-28T01:32:20;2.30;;;1.90;;
59972;SDS011;55298;-36.624;-64.282;2024-02-28T01:34:48;2.17;;;2.00;;
59972;SDS011;55298;-36.624;-64.282;2024-02-28T01:39:43;4.43;;;1.90;;
59972;SDS011;55298;-36.624;-64.282;2024-02-28T01:42:11;3.90;;;2.08;;
59972;SDS011;55298;-36.624;-64.282;2024-02-28T01:44:43;2.72;;;1.70;;
59972;SDS011;55298;-36.624;-64.282;2024-02-28T01:47:14;3.38;;;1.83;;
59972;SDS011;55298;-36.624;-64.282;2024-02-28T01:49:42;2.17;;;1.83;;
59972;SDS011;55298;-36.624;-64.282;2024-02-28T01:52:12;3.13;;;2.53;;
59972;SDS011;55298;-36.624;-64.282;2024-02-28T01:54:40;2.22;;;2.05;;
59972;SDS011;55298;-36.624;-64.282;2024-02-28T01:57:12;2.28;;;2.00;;
59972;SDS011;55298;-36.624;-64.282;2024-02-28T01:59:42;1.95;;;1.85;;
59972;SDS011;55298;-36.624;-64.282;2024-02-28T02:02:10;5.53;;;2.10;;
59972;SDS011;55298;-36.624;-64.282;2024-02-28T02:04:38;2.03;;;1.60;;
59972;SDS011;55298;-36.624;-64.282;2024-02-28T02:07:06;1.65;;;1.55;;
59972;SDS011;55298;-36.624;-64.282;2024-02-28T02:09:34;4.57;;;2.75;;
59972;SDS011;55298;-36.624;-64.282;2024-02-28T02:12:02;2.85;;;2.13;;
59972;SDS011;55298;-36.624;-64.282;2024-02-28T02:14:29;2.75;;;2.55;;
59972;SDS011;55298;-36.624;-64.282;2024-02-28T02:16:57;2.72;;;2.10;;
59972;SDS011;55298;-36.624;-64.282;2024-02-28T02:19:25;2.55;;;1.55;;
59972;SDS011;55298;-36.624;-64.282;2024-02-28T02:21:53;2.65;;;2.03;;
59972;SDS011;55298;-36.624;-64.282;2024-02-28T02:24:26;2.50;;;2.30;;
59972;SDS011;55298;-36.624;-64.282;2024-02-28T02:26:57;2.53;;;2.20;;
59972;SDS011;55298;-36.624;-64.282;2024-02-28T02:29:26;4.93;;;2.45;;
59972;SDS011;55298;-36.624;-64.282;2024-02-28T02:31:54;9.45;;;2.97;;
59972;SDS011;55298;-36.624;-64.282;2024-02-28T02:34:22;2.70;;;2.00;;
59972;SDS011;55298;-36.624;-64.282;2024-02-28T02:36:50;2.30;;;2.10;;
59972;SDS011;55298;-36.624;-64.282;2024-02-28T02:39:18;1.80;;;1.70;;
59972;SDS011;55298;-36.624;-64.282;2024-02-28T02:41:46;2.65;;;1.60;;
59972;SDS011;55298;-36.624;-64.282;2024-02-28T02:44:14;3.50;;;1.65;;
59972;SDS011;55298;-36.624;-64.282;2024-02-28T02:46:42;1.70;;;1.60;;
59972;SDS011;55298;-36.624;-64.282;2024-02-28T02:49:09;1.60;;;1.50;;
59972;SDS011;55298;-36.624;-64.282;2024-02-28T02:51:37;3.08;;;1.73;;
59972;SDS011;55298;-36.624;-64.282;2024-02-28T02:54:05;2.67;;;1.73;;
59972;SDS011;55298;-36.624;-64.282;2024-02-28T02:56:33;1.77;;;1.65;;
59972;SDS011;55298;-36.624;-64.282;2024-02-28T02:59:00;2.17;;;1.90;;
59972;SDS011;55298;-36.624;-64.282;2024-02-28T03:01:28;1.80;;;1.70;;
59972;SDS011;55298;-36.624;-64.282;2024-02-28T03:03:55;1.80;;;1.70;;
59972;SDS011;55298;-36.624;-64.282;2024-02-28T03:06:23;1.48;;;1.42;;
59972;SDS011;55298;-36.624;-64.282;2024-02-28T03:08:51;4.57;;;2.33;;
59972;SDS011;55298;-36.624;-64.282;2024-02-28T03:11:19;2.92;;;1.70;;
59972;SDS011;55298;-36.624;-64.282;2024-02-28T03:13:46;4.35;;;1.90;;
59972;SDS011;55298;-36.624;-64.282;2024-02-28T03:16:14;1.75;;;1.58;;
59972;SDS011;55298;-36.624;-64.282;2024-02-28T03:18:42;1.98;;;1.80;;
59972;SDS011;55298;-36.624;-64.282;2024-02-28T03:21:11;1.63;;;1.52;;
59972;SDS011;55298;-36.624;-64.282;2024-02-28T03:23:39;1.63;;;1.48;;
59972;SDS011;55298;-36.624;-64.282;2024-02-28T03:26:06;2.80;;;1.50;;
59972;SDS011;55298;-36.624;-64.282;2024-02-28T03:28:34;1.60;;;1.50;;
59972;SDS011;55298;-36.624;-64.282;2024-02-28T03:31:05;2.13;;;1.58;;
59972;SDS011;55298;-36.624;-64.282;2024-02-28T03:33:33;1.88;;;1.50;;
59972;SDS011;55298;-36.624;-64.282;2024-02-28T03:36:01;1.52;;;1.42;;
59972;SDS011;55298;-36.624;-64.282;2024-02-28T03:38:30;2.40;;;1.90;;
59972;SDS011;55298;-36.624;-64.282;2024-02-28T03:40:58;1.90;;;1.80;;
59972;SDS011;55298;-36.624;-64.282;2024-02-28T03:43:26;1.77;;;1.67;;
59972;SDS011;55298;-36.624;-64.282;2024-02-28T03:45:53;1.73;;;1.63;;
59972;SDS011;55298;-36.624;-64.282;2024-02-28T03:48:21;1.60;;;1.50;;
59972;SDS011;55298;-36.624;-64.282;2024-02-28T03:50:49;1.70;;;1.60;;
59972;SDS011;55298;-36.624;-64.282;2024-02-28T03:53:17;1.60;;;1.50;;
59972;SDS011;55298;-36.624;-64.282;2024-02-28T03:55:44;1.60;;;1.50;;
59972;SDS011;55298;-36.624;-64.282;2024-02-28T03:58:12;1.45;;;1.42;;
59972;SDS011;55298;-36.624;-64.282;2024-02-28T04:00:40;1.70;;;1.60;;
59972;SDS011;55298;-36.624;-64.282;2024-02-28T04:03:10;2.83;;;1.70;;
59972;SDS011;55298;-36.624;-64.282;2024-02-28T04:05:40;1.50;;;1.40;;
59972;SDS011;55298;-36.624;-64.282;2024-02-28T04:08:08;2.30;;;1.60;;
59972;SDS011;55298;-36.624;-64.282;2024-02-28T04:10:36;1.90;;;1.70;;
59972;SDS011;55298;-36.624;-64.282;2024-02-28T04:13:04;1.98;;;1.73;;
59972;SDS011;55298;-36.624;-64.282;2024-02-28T04:15:32;1.60;;;1.50;;
59972;SDS011;55298;-36.624;-64.282;2024-02-28T04:18:01;1.60;;;1.50;;
59972;SDS011;55298;-36.624;-64.282;2024-02-28T04:20:29;2.15;;;1.60;;
59972;SDS011;55298;-36.624;-64.282;2024-02-28T04:22:56;1.40;;;1.40;;
59972;SDS011;55298;-36.624;-64.282;2024-02-28T04:25:24;1.67;;;1.30;;
59972;SDS011;55298;-36.624;-64.282;2024-02-28T04:27:52;1.92;;;1.60;;
59972;SDS011;55298;-36.624;-64.282;2024-02-28T04:30:20;1.70;;;1.60;;
59972;SDS011;55298;-36.624;-64.282;2024-02-28T04:32:47;1.38;;;1.38;;
59972;SDS011;55298;-36.624;-64.282;2024-02-28T04:35:15;1.55;;;1.45;;
59972;SDS011;55298;-36.624;-64.282;2024-02-28T04:37:44;1.58;;;1.48;;
59972;SDS011;55298;-36.624;-64.282;2024-02-28T04:40:12;1.60;;;1.50;;
59972;SDS011;55298;-36.624;-64.282;2024-02-28T04:42:41;1.35;;;1.35;;
59972;SDS011;55298;-36.624;-64.282;2024-02-28T04:45:09;1.38;;;1.30;;
59972;SDS011;55298;-36.624;-64.282;2024-02-28T04:47:37;1.40;;;1.30;;
59972;SDS011;55298;-36.624;-64.282;2024-02-28T04:50:05;2.28;;;1.38;;
59972;SDS011;55298;-36.624;-64.282;2024-02-28T04:52:33;2.22;;;1.48;;
59972;SDS011;55298;-36.624;-64.282;2024-02-28T04:55:01;1.50;;;1.40;;
59972;SDS011;55298;-36.624;-64.282;2024-02-28T04:57:29;1.30;;;1.30;;
59972;SDS011;55298;-36.624;-64.282;2024-02-28T04:59:57;2.90;;;1.58;;
59972;SDS011;55298;-36.624;-64.282;2024-02-28T05:02:25;1.52;;;1.42;;
59972;SDS011;55298;-36.624;-64.282;2024-02-28T05:04:53;2.35;;;1.50;;
59972;SDS011;55298;-36.624;-64.282;2024-02-28T05:07:20;1.40;;;1.40;;
59972;SDS011;55298;-36.624;-64.282;2024-02-28T05:09:48;1.40;;;1.30;;
59972;SDS011;55298;-36.624;-64.282;2024-02-28T05:12:17;2.25;;;1.45;;
59972;SDS011;55298;-36.624;-64.282;2024-02-28T05:14:45;2.65;;;1.77;;
59972;SDS011;55298;-36.624;-64.282;2024-02-28T05:17:12;1.73;;;1.63;;
59972;SDS011;55298;-36.624;-64.282;2024-02-28T05:19:40;1.73;;;1.60;;
59972;SDS011;55298;-36.624;-64.282;2024-02-28T05:22:08;3.08;;;1.60;;
59972;SDS011;55298;-36.624;-64.282;2024-02-28T05:24:37;1.60;;;1.60;;
59972;SDS011;55298;-36.624;-64.282;2024-02-28T05:27:04;3.08;;;1.50;;
59972;SDS011;55298;-36.624;-64.282;2024-02-28T05:29:33;1.60;;;1.50;;
59972;SDS011;55298;-36.624;-64.282;2024-02-28T05:32:01;1.60;;;1.50;;
59972;SDS011;55298;-36.624;-64.282;2024-02-28T05:34:28;1.52;;;1.42;;
59972;SDS011;55298;-36.624;-64.282;2024-02-28T05:36:56;1.58;;;1.50;;
59972;SDS011;55298;-36.624;-64.282;2024-02-28T05:39:26;1.77;;;1.67;;
59972;SDS011;55298;-36.624;-64.282;2024-02-28T05:41:56;1.73;;;1.50;;
59972;SDS011;55298;-36.624;-64.282;2024-02-28T05:44:24;1.98;;;1.50;;
59972;SDS011;55298;-36.624;-64.282;2024-02-28T05:46:52;1.70;;;1.60;;
59972;SDS011;55298;-36.624;-64.282;2024-02-28T05:49:20;1.88;;;1.75;;
59972;SDS011;55298;-36.624;-64.282;2024-02-28T05:51:48;1.50;;;1.50;;
59972;SDS011;55298;-36.624;-64.282;2024-02-28T05:54:16;1.60;;;1.50;;
59972;SDS011;55298;-36.624;-64.282;2024-02-28T05:56:44;1.40;;;1.40;;
59972;SDS011;55298;-36.624;-64.282;2024-02-28T05:59:12;1.60;;;1.60;;
59972;SDS011;55298;-36.624;-64.282;2024-02-28T06:01:39;1.40;;;1.40;;
59972;SDS011;55298;-36.624;-64.282;2024-02-28T06:04:07;3.75;;;1.48;;
59972;SDS011;55298;-36.624;-64.282;2024-02-28T06:06:35;2.30;;;1.75;;
59972;SDS011;55298;-36.624;-64.282;2024-02-28T06:09:03;2.42;;;1.50;;
59972;SDS011;55298;-36.624;-64.282;2024-02-28T06:11:34;2.70;;;1.50;;
59972;SDS011;55298;-36.624;-64.282;2024-02-28T06:14:02;2.10;;;1.85;;
59972;SDS011;55298;-36.624;-64.282;2024-02-28T06:16:30;1.50;;;1.40;;
59972;SDS011;55298;-36.624;-64.282;2024-02-28T06:18:57;1.45;;;1.40;;
59972;SDS011;55298;-36.624;-64.282;2024-02-28T06:21:25;1.70;;;1.65;;
59972;SDS011;55298;-36.624;-64.282;2024-02-28T06:23:53;1.80;;;1.70;;
59972;SDS011;55298;-36.624;-64.282;2024-02-28T06:26:21;2.15;;;1.80;;
59972;SDS011;55298;-36.624;-64.282;2024-02-28T06:28:49;1.60;;;1.50;;
59972;SDS011;55298;-36.624;-64.282;2024-02-28T06:31:17;1.65;;;1.60;;
59972;SDS011;55298;-36.624;-64.282;2024-02-28T06:33:45;1.80;;;1.70;;
59972;SDS011;55298;-36.624;-64.282;2024-02-28T06:36:13;1.90;;;1.80;;
59972;SDS011;55298;-36.624;-64.282;2024-02-28T06:38:40;1.80;;;1.70;;
59972;SDS011;55298;-36.624;-64.282;2024-02-28T06:41:08;2.45;;;1.77;;
59972;SDS011;55298;-36.624;-64.282;2024-02-28T06:43:36;2.35;;;1.60;;
59972;SDS011;55298;-36.624;-64.282;2024-02-28T06:46:04;1.80;;;1.70;;
59972;SDS011;55298;-36.624;-64.282;2024-02-28T06:48:32;1.63;;;1.52;;
59972;SDS011;55298;-36.624;-64.282;2024-02-28T06:51:00;1.70;;;1.60;;
59972;SDS011;55298;-36.624;-64.282;2024-02-28T06:53:28;1.98;;;1.65;;
59972;SDS011;55298;-36.624;-64.282;2024-02-28T06:55:55;1.80;;;1.70;;
59972;SDS011;55298;-36.624;-64.282;2024-02-28T06:58:23;1.88;;;1.70;;
59972;SDS011;55298;-36.624;-64.282;2024-02-28T07:00:51;1.80;;;1.58;;
59972;SDS011;55298;-36.624;-64.282;2024-02-28T07:03:19;1.70;;;1.60;;
59972;SDS011;55298;-36.624;-64.282;2024-02-28T07:05:46;1.98;;;1.60;;
59972;SDS011;55298;-36.624;-64.282;2024-02-28T07:08:14;2.40;;;1.95;;
59972;SDS011;55298;-36.624;-64.282;2024-02-28T07:10:41;1.63;;;1.60;;
59972;SDS011;55298;-36.624;-64.282;2024-02-28T07:13:13;1.70;;;1.60;;
59972;SDS011;55298;-36.624;-64.282;2024-02-28T07:15:40;1.70;;;1.60;;
59972;SDS011;55298;-36.624;-64.282;2024-02-28T07:18:09;1.90;;;1.80;;
59972;SDS011;55298;-36.624;-64.282;2024-02-28T07:20:37;1.80;;;1.70;;
59972;SDS011;55298;-36.624;-64.282;2024-02-28T07:23:04;1.70;;;1.60;;
59972;SDS011;55298;-36.624;-64.282;2024-02-28T07:25:32;1.90;;;1.80;;
59972;SDS011;55298;-36.624;-64.282;2024-02-28T07:28:00;1.90;;;1.80;;
59972;SDS011;55298;-36.624;-64.282;2024-02-28T07:30:28;1.88;;;1.60;;
59972;SDS011;55298;-36.624;-64.282;2024-02-28T07:32:57;1.80;;;1.70;;
59972;SDS011;55298;-36.624;-64.282;2024-02-28T07:35:24;1.70;;;1.60;;
59972;SDS011;55298;-36.624;-64.282;2024-02-28T07:37:52;2.05;;;1.85;;
59972;SDS011;55298;-36.624;-64.282;2024-02-28T07:40:20;1.80;;;1.70;;
59972;SDS011;55298;-36.624;-64.282;2024-02-28T07:42:47;1.90;;;1.80;;
59972;SDS011;55298;-36.624;-64.282;2024-02-28T07:45:15;2.95;;;1.80;;
59972;SDS011;55298;-36.624;-64.282;2024-02-28T07:47:42;1.83;;;1.73;;
59972;SDS011;55298;-36.624;-64.282;2024-02-28T07:50:11;1.70;;;1.60;;
59972;SDS011;55298;-36.624;-64.282;2024-02-28T07:52:39;2.78;;;2.00;;
59972;SDS011;55298;-36.624;-64.282;2024-02-28T07:55:07;1.80;;;1.70;;
59972;SDS011;55298;-36.624;-64.282;2024-02-28T07:57:34;1.80;;;1.73;;
59972;SDS011;55298;-36.624;-64.282;2024-02-28T08:00:02;1.90;;;1.80;;
59972;SDS011;55298;-36.624;-64.282;2024-02-28T08:02:31;1.70;;;1.60;;
59972;SDS011;55298;-36.624;-64.282;2024-02-28T08:04:59;1.90;;;1.80;;
59972;SDS011;55298;-36.624;-64.282;2024-02-28T08:07:26;1.80;;;1.70;;
59972;SDS011;55298;-36.624;-64.282;2024-02-28T08:09:54;1.92;;;1.70;;
59972;SDS011;55298;-36.624;-64.282;2024-02-28T08:12:21;4.05;;;2.38;;
59972;SDS011;55298;-36.624;-64.282;2024-02-28T08:14:49;2.20;;;1.90;;
59972;SDS011;55298;-36.624;-64.282;2024-02-28T08:17:16;2.00;;;1.90;;
59972;SDS011;55298;-36.624;-64.282;2024-02-28T08:19:44;2.05;;;1.90;;
59972;SDS011;55298;-36.624;-64.282;2024-02-28T08:22:12;1.98;;;1.70;;
59972;SDS011;55298;-36.624;-64.282;2024-02-28T08:24:40;1.80;;;1.70;;
59972;SDS011;55298;-36.624;-64.282;2024-02-28T08:27:07;2.20;;;1.60;;
59972;SDS011;55298;-36.624;-64.282;2024-02-28T08:29:35;1.50;;;1.50;;
59972;SDS011;55298;-36.624;-64.282;2024-02-28T08:32:10;1.88;;;1.77;;
59972;SDS011;55298;-36.624;-64.282;2024-02-28T08:34:37;1.73;;;1.63;;
59972;SDS011;55298;-36.624;-64.282;2024-02-28T08:37:05;1.92;;;1.83;;
59972;SDS011;55298;-36.624;-64.282;2024-02-28T08:39:32;1.90;;;1.80;;
59972;SDS011;55298;-36.624;-64.282;2024-02-28T08:42:00;2.00;;;1.90;;
59972;SDS011;55298;-36.624;-64.282;2024-02-28T08:44:27;1.80;;;1.70;;
59972;SDS011;55298;-36.624;-64.282;2024-02-28T08:46:55;1.90;;;1.80;;
59972;SDS011;55298;-36.624;-64.282;2024-02-28T08:49:22;1.90;;;1.80;;
59972;SDS011;55298;-36.624;-64.282;2024-02-28T08:51:50;2.53;;;2.00;;
59972;SDS011;55298;-36.624;-64.282;2024-02-28T08:54:17;1.65;;;1.60;;
59972;SDS011;55298;-36.624;-64.282;2024-02-28T08:56:45;3.30;;;2.80;;
59972;SDS011;55298;-36.624;-64.282;2024-02-28T08:59:13;2.00;;;1.80;;
59972;SDS011;55298;-36.624;-64.282;2024-02-28T09:01:40;3.03;;;2.72;;
59972;SDS011;55298;-36.624;-64.282;2024-02-28T09:04:08;1.85;;;1.75;;
59972;SDS011;55298;-36.624;-64.282;2024-02-28T09:06:35;3.08;;;2.42;;
59972;SDS011;55298;-36.624;-64.282;2024-02-28T09:09:03;1.90;;;1.80;;
59972;SDS011;55298;-36.624;-64.282;2024-02-28T09:11:30;1.90;;;1.80;;
59972;SDS011;55298;-36.624;-64.282;2024-02-28T09:13:58;1.92;;;1.83;;
59972;SDS011;55298;-36.624;-64.282;2024-02-28T09:16:26;2.45;;;1.70;;
59972;SDS011;55298;-36.624;-64.282;2024-02-28T09:18:54;2.05;;;1.70;;
59972;SDS011;55298;-36.624;-64.282;2024-02-28T09:21:21;3.47;;;1.75;;
59972;SDS011;55298;-36.624;-64.282;2024-02-28T09:23:49;1.85;;;1.60;;
59972;SDS011;55298;-36.624;-64.282;2024-02-28T09:26:17;1.70;;;1.60;;
59972;SDS011;55298;-36.624;-64.282;2024-02-28T09:28:44;2.42;;;2.22;;
59972;SDS011;55298;-36.624;-64.282;2024-02-28T09:31:12;2.00;;;1.90;;
59972;SDS011;55298;-36.624;-64.282;2024-02-28T09:33:41;1.88;;;1.75;;
59972;SDS011;55298;-36.624;-64.282;2024-02-28T09:36:12;2.75;;;1.80;;
59972;SDS011;55298;-36.624;-64.282;2024-02-28T09:38:40;2.42;;;2.33;;
59972;SDS011;55298;-36.624;-64.282;2024-02-28T09:41:15;2.28;;;2.13;;
59972;SDS011;55298;-36.624;-64.282;2024-02-28T09:43:47;2.72;;;2.00;;
59972;SDS011;55298;-36.624;-64.282;2024-02-28T09:46:17;2.33;;;2.20;;
59972;SDS011;55298;-36.624;-64.282;2024-02-28T09:48:44;2.75;;;1.80;;
59972;SDS011;55298;-36.624;-64.282;2024-02-28T09:51:17;2.10;;;1.90;;
59972;SDS011;55298;-36.624;-64.282;2024-02-28T09:53:47;2.22;;;2.05;;
59972;SDS011;55298;-36.624;-64.282;2024-02-28T09:56:15;2.63;;;2.40;;
59972;SDS011;55298;-36.624;-64.282;2024-02-28T09:58:44;2.70;;;2.30;;
59972;SDS011;55298;-36.624;-64.282;2024-02-28T10:01:13;2.38;;;2.17;;
59972;SDS011;55298;-36.624;-64.282;2024-02-28T10:03:44;2.53;;;2.33;;
59972;SDS011;55298;-36.624;-64.282;2024-02-28T10:06:13;3.90;;;2.30;;
59972;SDS011;55298;-36.624;-64.282;2024-02-28T10:08:41;2.53;;;2.33;;
59972;SDS011;55298;-36.624;-64.282;2024-02-28T10:11:18;2.30;;;2.10;;
59972;SDS011;55298;-36.624;-64.282;2024-02-28T10:13:48;3.75;;;2.70;;
59972;SDS011;55298;-36.624;-64.282;2024-02-28T10:16:16;2.10;;;2.00;;
59972;SDS011;55298;-36.624;-64.282;2024-02-28T10:18:44;4.20;;;2.80;;
59972;SDS011;55298;-36.624;-64.282;2024-02-28T10:21:14;5.95;;;2.80;;
59972;SDS011;55298;-36.624;-64.282;2024-02-28T10:23:42;3.05;;;2.30;;
59972;SDS011;55298;-36.624;-64.282;2024-02-28T10:26:11;2.50;;;2.30;;
59972;SDS011;55298;-36.624;-64.282;2024-02-28T10:28:40;2.47;;;2.28;;
59972;SDS011;55298;-36.624;-64.282;2024-02-28T10:31:13;5.15;;;3.10;;
59972;SDS011;55298;-36.624;-64.282;2024-02-28T10:36:13;2.47;;;2.30;;
59972;SDS011;55298;-36.624;-64.282;2024-02-28T10:38:44;3.15;;;2.30;;
59972;SDS011;55298;-36.624;-64.282;2024-02-28T10:41:12;2.05;;;1.83;;
59972;SDS011;55298;-36.624;-64.282;2024-02-28T10:43:41;2.47;;;2.20;;
59972;SDS011;55298;-36.624;-64.282;2024-02-28T10:46:10;2.72;;;2.13;;
59972;SDS011;55298;-36.624;-64.282;2024-02-28T10:48:40;4.03;;;2.50;;
59972;SDS011;55298;-36.624;-64.282;2024-02-28T10:51:08;4.15;;;3.30;;
59972;SDS011;55298;-36.624;-64.282;2024-02-28T10:53:42;5.28;;;3.10;;
59972;SDS011;55298;-36.624;-64.282;2024-02-28T10:56:12;3.63;;;2.75;;
59972;SDS011;55298;-36.624;-64.282;2024-02-28T10:58:51;3.72;;;2.80;;
59972;SDS011;55298;-36.624;-64.282;2024-02-28T11:01:22;3.70;;;2.80;;
59972;SDS011;55298;-36.624;-64.282;2024-02-28T11:03:51;3.67;;;2.63;;
59972;SDS011;55298;-36.624;-64.282;2024-02-28T11:06:21;6.85;;;3.47;;
59972;SDS011;55298;-36.624;-64.282;2024-02-28T11:08:49;3.00;;;2.70;;
59972;SDS011;55298;-36.624;-64.282;2024-02-28T11:11:20;2.22;;;2.03;;
59972;SDS011;55298;-36.624;-64.282;2024-02-28T11:13:53;4.20;;;3.90;;
59972;SDS011;55298;-36.624;-64.282;2024-02-28T11:16:28;4.65;;;4.25;;
59972;SDS011;55298;-36.624;-64.282;2024-02-28T11:18:58;3.88;;;2.60;;
59972;SDS011;55298;-36.624;-64.282;2024-02-28T11:21:29;3.53;;;2.25;;
59972;SDS011;55298;-36.624;-64.282;2024-02-28T11:24:01;4.70;;;2.58;;
59972;SDS011;55298;-36.624;-64.282;2024-02-28T11:26:34;2.25;;;1.98;;
59972;SDS011;55298;-36.624;-64.282;2024-02-28T11:29:02;2.22;;;2.00;;
59972;SDS011;55298;-36.624;-64.282;2024-02-28T11:31:33;3.95;;;2.25;;
59972;SDS011;55298;-36.624;-64.282;2024-02-28T11:34:01;3.90;;;2.40;;
59972;SDS011;55298;-36.624;-64.282;2024-02-28T11:36:29;5.35;;;1.90;;
59972;SDS011;55298;-36.624;-64.282;2024-02-28T11:38:57;5.63;;;2.50;;
59972;SDS011;55298;-36.624;-64.282;2024-02-28T11:41:27;3.63;;;2.25;;
59972;SDS011;55298;-36.624;-64.282;2024-02-28T11:43:55;3.92;;;2.17;;
59972;SDS011;55298;-36.624;-64.282;2024-02-28T11:46:26;4.45;;;2.38;;
59972;SDS011;55298;-36.624;-64.282;2024-02-28T11:48:55;6.30;;;5.70;;
59972;SDS011;55298;-36.624;-64.282;2024-02-28T11:51:23;4.05;;;3.53;;
59972;SDS011;55298;-36.624;-64.282;2024-02-28T11:54:11;2.40;;;2.20;;
59972;SDS011;55298;-36.624;-64.282;2024-02-28T11:56:41;3.70;;;2.17;;
59972;SDS011;55298;-36.624;-64.282;2024-02-28T11:59:12;4.97;;;2.20;;
59972;SDS011;55298;-36.624;-64.282;2024-02-28T12:01:43;4.20;;;2.47;;
59972;SDS011;55298;-36.624;-64.282;2024-02-28T12:04:17;6.05;;;2.70;;
59972;SDS011;55298;-36.624;-64.282;2024-02-28T12:06:45;2.47;;;2.08;;
59972;SDS011;55298;-36.624;-64.282;2024-02-28T12:09:14;2.45;;;1.90;;
59972;SDS011;55298;-36.624;-64.282;2024-02-28T12:11:56;2.35;;;2.13;;
59972;SDS011;55298;-36.624;-64.282;2024-02-28T12:14:32;2.58;;;2.10;;
59972;SDS011;55298;-36.624;-64.282;2024-02-28T12:17:08;2.70;;;2.50;;
59972;SDS011;55298;-36.624;-64.282;2024-02-28T12:19:40;3.15;;;2.85;;
59972;SDS011;55298;-36.624;-64.282;2024-02-28T12:22:19;2.60;;;2.40;;
59972;SDS011;55298;-36.624;-64.282;2024-02-28T12:24:49;2.10;;;2.00;;
59972;SDS011;55298;-36.624;-64.282;2024-02-28T12:27:17;2.78;;;1.90;;
59972;SDS011;55298;-36.624;-64.282;2024-02-28T12:29:45;3.35;;;1.90;;
59972;SDS011;55298;-36.624;-64.282;2024-02-28T12:32:14;4.90;;;2.80;;
59972;SDS011;55298;-36.624;-64.282;2024-02-28T12:34:43;1.60;;;1.50;;
59972;SDS011;55298;-36.624;-64.282;2024-02-28T12:37:11;2.10;;;1.60;;
59972;SDS011;55298;-36.624;-64.282;2024-02-28T12:39:39;2.55;;;1.60;;
59972;SDS011;55298;-36.624;-64.282;2024-02-28T12:42:07;2.80;;;1.60;;
59972;SDS011;55298;-36.624;-64.282;2024-02-28T12:44:35;2.55;;;1.60;;
59972;SDS011;55298;-36.624;-64.282;2024-02-28T12:47:12;2.75;;;1.48;;
59972;SDS011;55298;-36.624;-64.282;2024-02-28T12:49:40;1.60;;;1.50;;
59972;SDS011;55298;-36.624;-64.282;2024-02-28T12:52:10;2.55;;;1.70;;
59972;SDS011;55298;-36.624;-64.282;2024-02-28T12:54:40;1.90;;;1.35;;
59972;SDS011;55298;-36.624;-64.282;2024-02-28T12:57:08;3.05;;;1.65;;
59972;SDS011;55298;-36.624;-64.282;2024-02-28T12:59:41;3.47;;;1.92;;
59972;SDS011;55298;-36.624;-64.282;2024-02-28T13:02:17;3.40;;;1.50;;
59972;SDS011;55298;-36.624;-64.282;2024-02-28T13:04:46;2.13;;;1.50;;
59972;SDS011;55298;-36.624;-64.282;2024-02-28T13:07:14;2.97;;;1.70;;
59972;SDS011;55298;-36.624;-64.282;2024-02-28T13:10:07;4.97;;;1.80;;
59972;SDS011;55298;-36.624;-64.282;2024-02-28T13:12:37;2.08;;;1.67;;
59972;SDS011;55298;-36.624;-64.282;2024-02-28T13:15:07;1.70;;;1.60;;
59972;SDS011;55298;-36.624;-64.282;2024-02-28T13:17:36;4.40;;;1.88;;
59972;SDS011;55298;-36.624;-64.282;2024-02-28T13:20:08;3.50;;;1.60;;
59972;SDS011;55298;-36.624;-64.282;2024-02-28T13:22:39;1.65;;;1.50;;
59972;SDS011;55298;-36.624;-64.282;2024-02-28T13:25:07;2.60;;;1.70;;
59972;SDS011;55298;-36.624;-64.282;2024-02-28T13:27:36;3.03;;;1.70;;
59972;SDS011;55298;-36.624;-64.282;2024-02-28T13:30:04;3.17;;;1.45;;
59972;SDS011;55298;-36.624;-64.282;2024-02-28T13:32:33;2.60;;;1.58;;
59972;SDS011;55298;-36.624;-64.282;2024-02-28T13:35:01;2.92;;;2.38;;
59972;SDS011;55298;-36.624;-64.282;2024-02-28T13:37:39;2.28;;;1.83;;
59972;SDS011;55298;-36.624;-64.282;2024-02-28T13:40:13;4.07;;;2.95;;
59972;SDS011;55298;-36.624;-64.282;2024-02-28T13:42:42;2.25;;;1.30;;
59972;SDS011;55298;-36.624;-64.282;2024-02-28T13:45:13;4.00;;;1.50;;
59972;SDS011;55298;-36.624;-64.282;2024-02-28T13:47:42;4.78;;;1.98;;
59972;SDS011;55298;-36.624;-64.282;2024-02-28T13:50:10;2.15;;;1.48;;
59972;SDS011;55298;-36.624;-64.282;2024-02-28T13:52:39;2.83;;;1.40;;
59972;SDS011;55298;-36.624;-64.282;2024-02-28T13:55:22;1.35;;;1.25;;
59972;SDS011;55298;-36.624;-64.282;2024-02-28T13:57:53;3.85;;;1.40;;
59972;SDS011;55298;-36.624;-64.282;2024-02-28T14:00:21;4.00;;;2.50;;
59972;SDS011;55298;-36.624;-64.282;2024-02-28T14:02:49;4.13;;;1.58;;
59972;SDS011;55298;-36.624;-64.282;2024-02-28T14:05:17;6.78;;;1.92;;
59972;SDS011;55298;-36.624;-64.282;2024-02-28T14:07:45;2.35;;;1.70;;
59972;SDS011;55298;-36.624;-64.282;2024-02-28T14:10:14;4.30;;;2.05;;
59972;SDS011;55298;-36.624;-64.282;2024-02-28T14:12:42;1.63;;;1.42;;
59972;SDS011;55298;-36.624;-64.282;2024-02-28T14:15:10;2.55;;;1.88;;
59972;SDS011;55298;-36.624;-64.282;2024-02-28T14:17:38;4.43;;;1.42;;
59972;SDS011;55298;-36.624;-64.282;2024-02-28T14:20:11;2.40;;;1.80;;
59972;SDS011;55298;-36.624;-64.282;2024-02-28T14:22:43;5.25;;;2.80;;